sensor_id;sensor_type;location;lat;lon;timestamp;P1;durP1;ratioP1;P2;durP2;ratioP2
67063;SDS011;58476;48.072;11.970;2023-06-14T00:00:15;2.38;;;1.88;;
67063;SDS011;58476;48.072;11.970;2023-06-14T00:02:41;1.98;;;1.73;;
67063;SDS011;58476;48.072;11.970;2023-06-14T00:05:06;2.13;;;1.70;;
67063;SDS011;58476;48.072;11.970;2023-06-14T00:07:36;1.90;;;1.70;;
67063;SDS011;58476;48.072;11.970;2023-06-14T00:10:03;2.08;;;1.48;;
67063;SDS011;58476;48.072;11.970;2023-06-14T00:12:29;1.92;;;1.80;;
67063;SDS011;58476;48.072;11.970;2023-06-14T00:14:54;2.83;;;1.90;;
67063;SDS011;58476;48.072;11.970;2023-06-14T00:17:19;2.65;;;1.75;;
67063;SDS011;58476;48.072;11.970;2023-06-14T00:19:45;2.40;;;1.90;;
67063;SDS011;58476;48.072;11.970;2023-06-14T00:22:10;1.88;;;1.73;;
67063;SDS011;58476;48.072;11.970;2023-06-14T00:24:35;3.35;;;1.90;;
67063;SDS011;58476;48.072;11.970;2023-06-14T00:27:01;2.15;;;1.73;;
67063;SDS011;58476;48.072;11.970;2023-06-14T00:29:28;1.90;;;1.70;;
67063;SDS011;58476;48.072;11.970;2023-06-14T00:31:53;2.42;;;1.85;;
67063;SDS011;58476;48.072;11.970;2023-06-14T00:34:19;2.20;;;1.85;;
67063;SDS011;58476;48.072;11.970;2023-06-14T00:36:44;1.73;;;1.63;;
67063;SDS011;58476;48.072;11.970;2023-06-14T00:39:13;2.88;;;2.00;;
67063;SDS011;58476;48.072;11.970;2023-06-14T00:41:39;1.98;;;1.70;;
67063;SDS011;58476;48.072;11.970;2023-06-14T00:44:04;3.35;;;2.00;;
67063;SDS011;58476;48.072;11.970;2023-06-14T00:46:30;1.75;;;1.65;;
67063;SDS011;58476;48.072;11.970;2023-06-14T00:48:55;2.35;;;1.73;;
67063;SDS011;58476;48.072;11.970;2023-06-14T00:51:21;2.65;;;1.80;;
67063;SDS011;58476;48.072;11.970;2023-06-14T00:53:47;3.38;;;2.00;;
67063;SDS011;58476;48.072;11.970;2023-06-14T00:56:13;2.00;;;1.80;;
67063;SDS011;58476;48.072;11.970;2023-06-14T00:58:41;1.85;;;1.63;;
67063;SDS011;58476;48.072;11.970;2023-06-14T01:01:06;2.20;;;1.90;;
67063;SDS011;58476;48.072;11.970;2023-06-14T01:03:33;2.40;;;1.88;;
67063;SDS011;58476;48.072;11.970;2023-06-14T01:06:05;2.20;;;1.70;;
67063;SDS011;58476;48.072;11.970;2023-06-14T01:09:31;2.67;;;1.92;;
67063;SDS011;58476;48.072;11.970;2023-06-14T01:11:41;2.08;;;1.67;;
67063;SDS011;58476;48.072;11.970;2023-06-14T01:14:15;3.08;;;1.80;;
67063;SDS011;58476;48.072;11.970;2023-06-14T01:16:42;4.53;;;1.90;;
67063;SDS011;58476;48.072;11.970;2023-06-14T01:19:07;2.35;;;1.80;;
67063;SDS011;58476;48.072;11.970;2023-06-14T01:21:39;1.67;;;1.58;;
67063;SDS011;58476;48.072;11.970;2023-06-14T01:24:04;2.05;;;1.77;;
67063;SDS011;58476;48.072;11.970;2023-06-14T01:26:30;2.58;;;1.90;;
67063;SDS011;58476;48.072;11.970;2023-06-14T01:28:58;1.70;;;1.60;;
67063;SDS011;58476;48.072;11.970;2023-06-14T01:31:24;1.70;;;1.60;;
67063;SDS011;58476;48.072;11.970;2023-06-14T01:33:50;1.67;;;1.58;;
67063;SDS011;58476;48.072;11.970;2023-06-14T01:36:17;1.85;;;1.70;;
67063;SDS011;58476;48.072;11.970;2023-06-14T01:38:44;1.98;;;1.60;;
67063;SDS011;58476;48.072;11.970;2023-06-14T01:41:10;1.90;;;1.70;;
67063;SDS011;58476;48.072;11.970;2023-06-14T01:43:36;1.75;;;1.60;;
67063;SDS011;58476;48.072;11.970;2023-06-14T01:46:04;3.13;;;1.55;;
67063;SDS011;58476;48.072;11.970;2023-06-14T01:48:31;1.83;;;1.70;;
67063;SDS011;58476;48.072;11.970;2023-06-14T01:50:56;1.63;;;1.52;;
67063;SDS011;58476;48.072;11.970;2023-06-14T01:53:22;2.00;;;1.77;;
67063;SDS011;58476;48.072;11.970;2023-06-14T01:55:47;2.00;;;1.60;;
67063;SDS011;58476;48.072;11.970;2023-06-14T01:58:13;1.95;;;1.63;;
67063;SDS011;58476;48.072;11.970;2023-06-14T02:00:38;1.70;;;1.60;;
67063;SDS011;58476;48.072;11.970;2023-06-14T02:03:03;2.20;;;1.70;;
67063;SDS011;58476;48.072;11.970;2023-06-14T02:05:29;1.70;;;1.60;;
67063;SDS011;58476;48.072;11.970;2023-06-14T02:07:54;1.70;;;1.60;;
67063;SDS011;58476;48.072;11.970;2023-06-14T02:10:20;2.20;;;1.65;;
67063;SDS011;58476;48.072;11.970;2023-06-14T02:12:46;1.70;;;1.60;;
67063;SDS011;58476;48.072;11.970;2023-06-14T02:15:11;1.88;;;1.70;;
67063;SDS011;58476;48.072;11.970;2023-06-14T02:17:37;2.72;;;1.65;;
67063;SDS011;58476;48.072;11.970;2023-06-14T02:20:05;2.10;;;1.90;;
67063;SDS011;58476;48.072;11.970;2023-06-14T02:22:31;2.22;;;1.70;;
67063;SDS011;58476;48.072;11.970;2023-06-14T02:24:56;1.98;;;1.70;;
67063;SDS011;58476;48.072;11.970;2023-06-14T02:27:22;2.00;;;1.80;;
67063;SDS011;58476;48.072;11.970;2023-06-14T02:29:47;3.05;;;1.98;;
67063;SDS011;58476;48.072;11.970;2023-06-14T02:32:12;1.67;;;1.58;;
67063;SDS011;58476;48.072;11.970;2023-06-14T02:34:38;2.58;;;1.80;;
67063;SDS011;58476;48.072;11.970;2023-06-14T02:37:03;2.22;;;1.80;;
67063;SDS011;58476;48.072;11.970;2023-06-14T02:39:29;3.30;;;1.80;;
67063;SDS011;58476;48.072;11.970;2023-06-14T02:41:54;2.80;;;1.80;;
67063;SDS011;58476;48.072;11.970;2023-06-14T02:44:23;2.42;;;1.73;;
67063;SDS011;58476;48.072;11.970;2023-06-14T02:46:49;2.13;;;1.60;;
67063;SDS011;58476;48.072;11.970;2023-06-14T02:49:16;2.72;;;1.70;;
67063;SDS011;58476;48.072;11.970;2023-06-14T02:51:41;2.45;;;1.90;;
67063;SDS011;58476;48.072;11.970;2023-06-14T02:54:06;3.13;;;1.80;;
67063;SDS011;58476;48.072;11.970;2023-06-14T02:56:32;2.60;;;1.80;;
67063;SDS011;58476;48.072;11.970;2023-06-14T02:58:58;2.33;;;1.80;;
67063;SDS011;58476;48.072;11.970;2023-06-14T03:01:25;1.85;;;1.65;;
67063;SDS011;58476;48.072;11.970;2023-06-14T03:03:51;2.00;;;1.70;;
67063;SDS011;58476;48.072;11.970;2023-06-14T03:06:16;2.60;;;1.70;;
67063;SDS011;58476;48.072;11.970;2023-06-14T03:08:43;2.53;;;1.90;;
67063;SDS011;58476;48.072;11.970;2023-06-14T03:11:12;2.03;;;1.60;;
67063;SDS011;58476;48.072;11.970;2023-06-14T03:13:38;1.80;;;1.70;;
67063;SDS011;58476;48.072;11.970;2023-06-14T03:16:05;1.95;;;1.65;;
67063;SDS011;58476;48.072;11.970;2023-06-14T03:18:34;2.13;;;1.70;;
67063;SDS011;58476;48.072;11.970;2023-06-14T03:20:59;2.95;;;1.58;;
67063;SDS011;58476;48.072;11.970;2023-06-14T03:23:26;2.22;;;1.73;;
67063;SDS011;58476;48.072;11.970;2023-06-14T03:25:52;2.67;;;1.60;;
67063;SDS011;58476;48.072;11.970;2023-06-14T03:28:17;3.67;;;1.80;;
67063;SDS011;58476;48.072;11.970;2023-06-14T03:30:42;3.15;;;2.00;;
67063;SDS011;58476;48.072;11.970;2023-06-14T03:33:08;2.25;;;1.67;;
67063;SDS011;58476;48.072;11.970;2023-06-14T03:35:37;1.90;;;1.70;;
67063;SDS011;58476;48.072;11.970;2023-06-14T03:38:02;2.78;;;1.98;;
67063;SDS011;58476;48.072;11.970;2023-06-14T03:40:28;2.30;;;1.67;;
67063;SDS011;58476;48.072;11.970;2023-06-14T03:42:59;4.75;;;1.88;;
67063;SDS011;58476;48.072;11.970;2023-06-14T03:45:24;2.38;;;1.80;;
67063;SDS011;58476;48.072;11.970;2023-06-14T03:47:50;4.47;;;2.53;;
67063;SDS011;58476;48.072;11.970;2023-06-14T03:50:16;1.70;;;1.60;;
67063;SDS011;58476;48.072;11.970;2023-06-14T03:52:42;3.05;;;1.90;;
67063;SDS011;58476;48.072;11.970;2023-06-14T03:55:08;2.80;;;2.40;;
67063;SDS011;58476;48.072;11.970;2023-06-14T03:57:34;1.95;;;1.60;;
67063;SDS011;58476;48.072;11.970;2023-06-14T03:59:59;1.92;;;1.70;;
67063;SDS011;58476;48.072;11.970;2023-06-14T04:02:25;1.73;;;1.63;;
67063;SDS011;58476;48.072;11.970;2023-06-14T04:04:51;2.88;;;1.90;;
67063;SDS011;58476;48.072;11.970;2023-06-14T04:07:16;5.55;;;1.67;;
67063;SDS011;58476;48.072;11.970;2023-06-14T04:09:42;3.88;;;1.73;;
67063;SDS011;58476;48.072;11.970;2023-06-14T04:12:07;4.25;;;1.75;;
67063;SDS011;58476;48.072;11.970;2023-06-14T04:14:33;5.60;;;1.88;;
67063;SDS011;58476;48.072;11.970;2023-06-14T04:16:59;2.35;;;1.60;;
67063;SDS011;58476;48.072;11.970;2023-06-14T04:19:25;3.40;;;2.08;;
67063;SDS011;58476;48.072;11.970;2023-06-14T04:21:52;4.38;;;1.92;;
67063;SDS011;58476;48.072;11.970;2023-06-14T04:24:17;2.72;;;1.85;;
67063;SDS011;58476;48.072;11.970;2023-06-14T04:26:46;6.10;;;2.10;;
67063;SDS011;58476;48.072;11.970;2023-06-14T04:29:13;3.15;;;2.05;;
67063;SDS011;58476;48.072;11.970;2023-06-14T04:31:40;2.90;;;1.80;;
67063;SDS011;58476;48.072;11.970;2023-06-14T04:34:08;3.22;;;2.00;;
67063;SDS011;58476;48.072;11.970;2023-06-14T04:36:34;7.47;;;1.90;;
67063;SDS011;58476;48.072;11.970;2023-06-14T04:39:00;2.92;;;1.98;;
67063;SDS011;58476;48.072;11.970;2023-06-14T04:41:27;2.50;;;1.80;;
67063;SDS011;58476;48.072;11.970;2023-06-14T04:43:52;5.78;;;1.90;;
67063;SDS011;58476;48.072;11.970;2023-06-14T04:47:17;5.53;;;1.90;;
67063;SDS011;58476;48.072;11.970;2023-06-14T04:49:43;5.65;;;1.90;;
67063;SDS011;58476;48.072;11.970;2023-06-14T04:52:08;11.05;;;2.00;;
67063;SDS011;58476;48.072;11.970;2023-06-14T04:54:36;7.55;;;2.00;;
67063;SDS011;58476;48.072;11.970;2023-06-14T04:57:02;7.40;;;2.15;;
67063;SDS011;58476;48.072;11.970;2023-06-14T04:59:29;5.20;;;2.00;;
67063;SDS011;58476;48.072;11.970;2023-06-14T05:01:55;8.18;;;2.17;;
67063;SDS011;58476;48.072;11.970;2023-06-14T05:04:21;26.10;;;2.78;;
67063;SDS011;58476;48.072;11.970;2023-06-14T05:06:47;20.80;;;2.83;;
67063;SDS011;58476;48.072;11.970;2023-06-14T05:09:14;24.27;;;3.42;;
67063;SDS011;58476;48.072;11.970;2023-06-14T05:11:40;19.40;;;2.90;;
67063;SDS011;58476;48.072;11.970;2023-06-14T05:14:05;22.13;;;3.20;;
67063;SDS011;58476;48.072;11.970;2023-06-14T05:16:31;17.27;;;2.85;;
67063;SDS011;58476;48.072;11.970;2023-06-14T05:18:56;12.75;;;2.40;;
67063;SDS011;58476;48.072;11.970;2023-06-14T05:21:22;9.32;;;2.28;;
67063;SDS011;58476;48.072;11.970;2023-06-14T05:23:47;10.75;;;2.20;;
67063;SDS011;58476;48.072;11.970;2023-06-14T05:26:12;11.52;;;2.28;;
67063;SDS011;58476;48.072;11.970;2023-06-14T05:28:38;10.27;;;2.20;;
67063;SDS011;58476;48.072;11.970;2023-06-14T05:31:03;13.20;;;2.80;;
67063;SDS011;58476;48.072;11.970;2023-06-14T05:33:28;7.78;;;1.80;;
67063;SDS011;58476;48.072;11.970;2023-06-14T05:35:54;7.80;;;2.10;;
67063;SDS011;58476;48.072;11.970;2023-06-14T05:38:19;8.77;;;2.33;;
67063;SDS011;58476;48.072;11.970;2023-06-14T05:40:44;7.18;;;2.00;;
67063;SDS011;58476;48.072;11.970;2023-06-14T05:43:10;10.30;;;2.25;;
67063;SDS011;58476;48.072;11.970;2023-06-14T05:45:35;10.80;;;3.22;;
67063;SDS011;58476;48.072;11.970;2023-06-14T05:48:01;3.80;;;2.03;;
67063;SDS011;58476;48.072;11.970;2023-06-14T05:50:26;8.57;;;2.40;;
67063;SDS011;58476;48.072;11.970;2023-06-14T05:52:51;6.65;;;2.10;;
67063;SDS011;58476;48.072;11.970;2023-06-14T05:55:17;4.22;;;2.10;;
67063;SDS011;58476;48.072;11.970;2023-06-14T05:57:43;2.95;;;1.88;;
67063;SDS011;58476;48.072;11.970;2023-06-14T06:00:08;3.88;;;2.00;;
67063;SDS011;58476;48.072;11.970;2023-06-14T06:02:37;5.50;;;3.08;;
67063;SDS011;58476;48.072;11.970;2023-06-14T06:05:02;5.20;;;2.00;;
67063;SDS011;58476;48.072;11.970;2023-06-14T06:07:28;7.15;;;1.92;;
67063;SDS011;58476;48.072;11.970;2023-06-14T06:09:53;6.18;;;1.90;;
67063;SDS011;58476;48.072;11.970;2023-06-14T06:12:19;7.40;;;2.25;;
67063;SDS011;58476;48.072;11.970;2023-06-14T06:14:44;2.50;;;1.65;;
67063;SDS011;58476;48.072;11.970;2023-06-14T06:17:09;3.85;;;1.90;;
67063;SDS011;58476;48.072;11.970;2023-06-14T06:19:35;4.30;;;1.92;;
67063;SDS011;58476;48.072;11.970;2023-06-14T06:22:00;5.20;;;2.05;;
67063;SDS011;58476;48.072;11.970;2023-06-14T06:24:25;5.13;;;2.45;;
67063;SDS011;58476;48.072;11.970;2023-06-14T06:26:51;12.32;;;2.63;;
67063;SDS011;58476;48.072;11.970;2023-06-14T06:29:16;6.55;;;2.10;;
67063;SDS011;58476;48.072;11.970;2023-06-14T06:31:41;12.02;;;2.60;;
67063;SDS011;58476;48.072;11.970;2023-06-14T06:34:07;4.63;;;2.10;;
67063;SDS011;58476;48.072;11.970;2023-06-14T06:36:32;6.57;;;1.98;;
67063;SDS011;58476;48.072;11.970;2023-06-14T06:38:57;8.32;;;2.00;;
67063;SDS011;58476;48.072;11.970;2023-06-14T06:41:22;11.70;;;2.30;;
67063;SDS011;58476;48.072;11.970;2023-06-14T06:43:48;4.07;;;2.05;;
67063;SDS011;58476;48.072;11.970;2023-06-14T06:46:15;8.90;;;2.10;;
67063;SDS011;58476;48.072;11.970;2023-06-14T06:48:41;3.28;;;2.08;;
67063;SDS011;58476;48.072;11.970;2023-06-14T06:51:06;5.85;;;2.20;;
67063;SDS011;58476;48.072;11.970;2023-06-14T06:53:31;7.07;;;2.05;;
67063;SDS011;58476;48.072;11.970;2023-06-14T06:55:57;6.18;;;1.90;;
67063;SDS011;58476;48.072;11.970;2023-06-14T06:58:22;4.32;;;1.77;;
67063;SDS011;58476;48.072;11.970;2023-06-14T07:00:47;5.90;;;2.03;;
67063;SDS011;58476;48.072;11.970;2023-06-14T07:03:13;6.30;;;2.15;;
67063;SDS011;58476;48.072;11.970;2023-06-14T07:05:38;5.45;;;2.25;;
67063;SDS011;58476;48.072;11.970;2023-06-14T07:08:03;7.68;;;2.25;;
67063;SDS011;58476;48.072;11.970;2023-06-14T07:10:29;15.05;;;2.20;;
67063;SDS011;58476;48.072;11.970;2023-06-14T07:12:54;4.47;;;1.90;;
67063;SDS011;58476;48.072;11.970;2023-06-14T07:15:19;8.30;;;2.00;;
67063;SDS011;58476;48.072;11.970;2023-06-14T07:17:45;12.05;;;2.67;;
67063;SDS011;58476;48.072;11.970;2023-06-14T07:20:10;5.38;;;2.30;;
67063;SDS011;58476;48.072;11.970;2023-06-14T07:22:36;5.35;;;1.98;;
67063;SDS011;58476;48.072;11.970;2023-06-14T07:25:01;8.70;;;1.90;;
67063;SDS011;58476;48.072;11.970;2023-06-14T07:27:26;3.33;;;1.85;;
67063;SDS011;58476;48.072;11.970;2023-06-14T07:29:52;7.25;;;2.13;;
67063;SDS011;58476;48.072;11.970;2023-06-14T07:32:17;5.05;;;2.20;;
67063;SDS011;58476;48.072;11.970;2023-06-14T07:34:42;2.67;;;1.90;;
67063;SDS011;58476;48.072;11.970;2023-06-14T07:37:08;7.07;;;2.05;;
67063;SDS011;58476;48.072;11.970;2023-06-14T07:39:33;5.07;;;1.98;;
67063;SDS011;58476;48.072;11.970;2023-06-14T07:41:58;5.20;;;2.00;;
67063;SDS011;58476;48.072;11.970;2023-06-14T07:44:24;7.38;;;3.03;;
67063;SDS011;58476;48.072;11.970;2023-06-14T07:46:49;8.55;;;1.98;;
67063;SDS011;58476;48.072;11.970;2023-06-14T07:49:14;6.18;;;2.10;;
67063;SDS011;58476;48.072;11.970;2023-06-14T07:51:40;20.90;;;3.03;;
67063;SDS011;58476;48.072;11.970;2023-06-14T07:54:05;9.98;;;2.05;;
67063;SDS011;58476;48.072;11.970;2023-06-14T07:56:30;10.38;;;3.00;;
67063;SDS011;58476;48.072;11.970;2023-06-14T07:58:56;6.25;;;1.90;;
67063;SDS011;58476;48.072;11.970;2023-06-14T08:01:21;7.22;;;2.00;;
67063;SDS011;58476;48.072;11.970;2023-06-14T08:03:46;17.52;;;2.40;;
67063;SDS011;58476;48.072;11.970;2023-06-14T08:06:12;15.80;;;2.13;;
67063;SDS011;58476;48.072;11.970;2023-06-14T08:08:37;7.40;;;2.30;;
67063;SDS011;58476;48.072;11.970;2023-06-14T08:11:02;6.55;;;1.80;;
67063;SDS011;58476;48.072;11.970;2023-06-14T08:13:28;5.68;;;2.10;;
67063;SDS011;58476;48.072;11.970;2023-06-14T08:15:53;11.82;;;2.13;;
67063;SDS011;58476;48.072;11.970;2023-06-14T08:18:18;9.88;;;1.98;;
67063;SDS011;58476;48.072;11.970;2023-06-14T08:20:44;7.95;;;1.98;;
67063;SDS011;58476;48.072;11.970;2023-06-14T08:23:09;9.02;;;1.95;;
67063;SDS011;58476;48.072;11.970;2023-06-14T08:25:35;8.65;;;2.45;;
67063;SDS011;58476;48.072;11.970;2023-06-14T08:28:00;3.10;;;1.90;;
67063;SDS011;58476;48.072;11.970;2023-06-14T08:30:26;5.30;;;1.98;;
67063;SDS011;58476;48.072;11.970;2023-06-14T08:32:51;7.45;;;2.17;;
67063;SDS011;58476;48.072;11.970;2023-06-14T08:35:17;13.88;;;2.80;;
67063;SDS011;58476;48.072;11.970;2023-06-14T08:37:42;6.80;;;2.00;;
67063;SDS011;58476;48.072;11.970;2023-06-14T08:40:18;7.00;;;2.97;;
67063;SDS011;58476;48.072;11.970;2023-06-14T08:42:44;5.35;;;2.00;;
67063;SDS011;58476;48.072;11.970;2023-06-14T08:45:12;2.90;;;1.80;;
67063;SDS011;58476;48.072;11.970;2023-06-14T08:47:38;10.48;;;1.90;;
67063;SDS011;58476;48.072;11.970;2023-06-14T08:50:03;4.75;;;1.77;;
67063;SDS011;58476;48.072;11.970;2023-06-14T08:52:30;8.02;;;1.98;;
67063;SDS011;58476;48.072;11.970;2023-06-14T08:57:26;6.28;;;1.67;;
67063;SDS011;58476;48.072;11.970;2023-06-14T08:59:52;11.52;;;2.53;;
67063;SDS011;58476;48.072;11.970;2023-06-14T09:02:18;8.75;;;1.98;;
67063;SDS011;58476;48.072;11.970;2023-06-14T09:04:43;5.75;;;2.10;;
67063;SDS011;58476;48.072;11.970;2023-06-14T09:07:09;8.75;;;2.10;;
67063;SDS011;58476;48.072;11.970;2023-06-14T09:09:37;7.68;;;1.95;;
67063;SDS011;58476;48.072;11.970;2023-06-14T09:12:05;8.35;;;2.05;;
67063;SDS011;58476;48.072;11.970;2023-06-14T09:14:33;12.05;;;2.85;;
67063;SDS011;58476;48.072;11.970;2023-06-14T09:16:58;6.10;;;2.78;;
67063;SDS011;58476;48.072;11.970;2023-06-14T09:19:24;9.57;;;2.17;;
67063;SDS011;58476;48.072;11.970;2023-06-14T09:21:49;4.10;;;1.98;;
67063;SDS011;58476;48.072;11.970;2023-06-14T09:24:15;6.15;;;1.70;;
67063;SDS011;58476;48.072;11.970;2023-06-14T09:26:40;4.95;;;1.83;;
67063;SDS011;58476;48.072;11.970;2023-06-14T09:29:05;5.28;;;2.15;;
67063;SDS011;58476;48.072;11.970;2023-06-14T09:31:31;2.67;;;2.20;;
67063;SDS011;58476;48.072;11.970;2023-06-14T09:33:56;5.90;;;2.13;;
67063;SDS011;58476;48.072;11.970;2023-06-14T09:36:23;4.00;;;1.83;;
67063;SDS011;58476;48.072;11.970;2023-06-14T09:41:18;4.68;;;1.98;;
67063;SDS011;58476;48.072;11.970;2023-06-14T09:43:43;8.20;;;1.92;;
67063;SDS011;58476;48.072;11.970;2023-06-14T09:46:09;5.43;;;1.80;;
67063;SDS011;58476;48.072;11.970;2023-06-14T09:48:35;5.45;;;1.80;;
67063;SDS011;58476;48.072;11.970;2023-06-14T09:51:00;10.98;;;1.90;;
67063;SDS011;58476;48.072;11.970;2023-06-14T09:53:26;4.40;;;2.28;;
67063;SDS011;58476;48.072;11.970;2023-06-14T09:55:54;15.18;;;4.40;;
67063;SDS011;58476;48.072;11.970;2023-06-14T09:58:22;20.90;;;8.57;;
67063;SDS011;58476;48.072;11.970;2023-06-14T10:00:50;40.85;;;14.32;;
67063;SDS011;58476;48.072;11.970;2023-06-14T10:03:21;36.95;;;15.98;;
67063;SDS011;58476;48.072;11.970;2023-06-14T10:05:49;35.20;;;13.00;;
67063;SDS011;58476;48.072;11.970;2023-06-14T10:08:16;22.95;;;11.32;;
67063;SDS011;58476;48.072;11.970;2023-06-14T10:10:44;26.15;;;10.25;;
67063;SDS011;58476;48.072;11.970;2023-06-14T10:13:09;26.88;;;7.95;;
67063;SDS011;58476;48.072;11.970;2023-06-14T10:18:33;22.75;;;8.50;;
67063;SDS011;58476;48.072;11.970;2023-06-14T10:23:51;29.60;;;7.75;;
67063;SDS011;58476;48.072;11.970;2023-06-14T10:26:17;17.77;;;8.05;;
67063;SDS011;58476;48.072;11.970;2023-06-14T10:29:00;17.38;;;7.38;;
67063;SDS011;58476;48.072;11.970;2023-06-14T10:31:44;16.13;;;6.53;;
67063;SDS011;58476;48.072;11.970;2023-06-14T10:34:24;18.35;;;6.35;;
67063;SDS011;58476;48.072;11.970;2023-06-14T10:39:27;17.00;;;5.57;;
67063;SDS011;58476;48.072;11.970;2023-06-14T10:41:54;16.58;;;5.57;;
67063;SDS011;58476;48.072;11.970;2023-06-14T10:46:46;13.10;;;5.22;;
67063;SDS011;58476;48.072;11.970;2023-06-14T10:49:12;14.35;;;4.90;;
67063;SDS011;58476;48.072;11.970;2023-06-14T10:51:44;12.98;;;5.13;;
67063;SDS011;58476;48.072;11.970;2023-06-14T10:54:13;14.82;;;4.63;;
67063;SDS011;58476;48.072;11.970;2023-06-14T10:56:52;11.32;;;4.38;;
67063;SDS011;58476;48.072;11.970;2023-06-14T10:59:19;16.10;;;4.07;;
67063;SDS011;58476;48.072;11.970;2023-06-14T11:01:58;11.23;;;4.45;;
67063;SDS011;58476;48.072;11.970;2023-06-14T11:04:52;11.45;;;3.58;;
67063;SDS011;58476;48.072;11.970;2023-06-14T11:12:45;13.70;;;3.85;;
67063;SDS011;58476;48.072;11.970;2023-06-14T11:15:13;14.85;;;3.45;;
67063;SDS011;58476;48.072;11.970;2023-06-14T11:17:38;12.38;;;3.28;;
67063;SDS011;58476;48.072;11.970;2023-06-14T11:20:08;15.13;;;3.38;;
67063;SDS011;58476;48.072;11.970;2023-06-14T11:22:43;15.38;;;3.97;;
67063;SDS011;58476;48.072;11.970;2023-06-14T11:25:09;13.00;;;3.15;;
67063;SDS011;58476;48.072;11.970;2023-06-14T11:27:37;9.70;;;2.75;;
67063;SDS011;58476;48.072;11.970;2023-06-14T11:30:02;9.80;;;2.60;;
67063;SDS011;58476;48.072;11.970;2023-06-14T11:32:28;12.25;;;2.92;;
67063;SDS011;58476;48.072;11.970;2023-06-14T11:34:56;12.43;;;3.35;;
67063;SDS011;58476;48.072;11.970;2023-06-14T11:37:22;16.30;;;3.20;;
67063;SDS011;58476;48.072;11.970;2023-06-14T11:39:47;17.25;;;3.90;;
67063;SDS011;58476;48.072;11.970;2023-06-14T11:42:15;18.08;;;3.80;;
67063;SDS011;58476;48.072;11.970;2023-06-14T11:44:41;14.43;;;3.47;;
67063;SDS011;58476;48.072;11.970;2023-06-14T11:47:06;12.80;;;3.10;;
67063;SDS011;58476;48.072;11.970;2023-06-14T11:49:35;15.65;;;2.95;;
67063;SDS011;58476;48.072;11.970;2023-06-14T11:52:01;12.55;;;3.00;;
67063;SDS011;58476;48.072;11.970;2023-06-14T11:54:26;11.75;;;3.55;;
67063;SDS011;58476;48.072;11.970;2023-06-14T11:56:52;15.25;;;4.00;;
67063;SDS011;58476;48.072;11.970;2023-06-14T11:59:18;18.25;;;4.95;;
67063;SDS011;58476;48.072;11.970;2023-06-14T12:01:43;13.27;;;3.30;;
67063;SDS011;58476;48.072;11.970;2023-06-14T12:04:08;14.48;;;3.17;;
67063;SDS011;58476;48.072;11.970;2023-06-14T12:06:34;7.22;;;2.70;;
67063;SDS011;58476;48.072;11.970;2023-06-14T12:08:59;12.20;;;2.83;;
67063;SDS011;58476;48.072;11.970;2023-06-14T12:11:31;8.55;;;2.50;;
67063;SDS011;58476;48.072;11.970;2023-06-14T12:13:57;9.10;;;2.45;;
67063;SDS011;58476;48.072;11.970;2023-06-14T12:16:29;13.82;;;2.42;;
67063;SDS011;58476;48.072;11.970;2023-06-14T12:18:55;10.23;;;2.88;;
67063;SDS011;58476;48.072;11.970;2023-06-14T12:21:22;10.10;;;2.45;;
67063;SDS011;58476;48.072;11.970;2023-06-14T12:23:48;5.28;;;2.25;;
67063;SDS011;58476;48.072;11.970;2023-06-14T12:26:15;9.93;;;2.70;;
67063;SDS011;58476;48.072;11.970;2023-06-14T12:28:42;10.23;;;2.17;;
67063;SDS011;58476;48.072;11.970;2023-06-14T12:31:09;8.18;;;2.38;;
67063;SDS011;58476;48.072;11.970;2023-06-14T12:33:34;13.35;;;2.92;;
67063;SDS011;58476;48.072;11.970;2023-06-14T12:36:00;8.85;;;2.40;;
67063;SDS011;58476;48.072;11.970;2023-06-14T12:38:28;13.20;;;2.55;;
67063;SDS011;58476;48.072;11.970;2023-06-14T12:40:54;10.65;;;2.47;;
67063;SDS011;58476;48.072;11.970;2023-06-14T12:43:19;8.18;;;2.60;;
67063;SDS011;58476;48.072;11.970;2023-06-14T12:45:44;7.82;;;2.40;;
67063;SDS011;58476;48.072;11.970;2023-06-14T12:48:10;10.55;;;2.40;;
67063;SDS011;58476;48.072;11.970;2023-06-14T12:50:35;15.48;;;3.78;;
67063;SDS011;58476;48.072;11.970;2023-06-14T12:53:00;9.73;;;2.20;;
67063;SDS011;58476;48.072;11.970;2023-06-14T12:55:25;5.88;;;2.30;;
67063;SDS011;58476;48.072;11.970;2023-06-14T12:57:51;16.25;;;2.53;;
67063;SDS011;58476;48.072;11.970;2023-06-14T13:00:16;5.18;;;2.30;;
67063;SDS011;58476;48.072;11.970;2023-06-14T13:02:42;10.05;;;2.88;;
67063;SDS011;58476;48.072;11.970;2023-06-14T13:05:08;9.90;;;2.50;;
67063;SDS011;58476;48.072;11.970;2023-06-14T13:07:34;10.65;;;2.40;;
67063;SDS011;58476;48.072;11.970;2023-06-14T13:09:59;6.40;;;2.10;;
67063;SDS011;58476;48.072;11.970;2023-06-14T13:12:24;9.05;;;2.30;;
67063;SDS011;58476;48.072;11.970;2023-06-14T13:14:50;5.60;;;2.25;;
67063;SDS011;58476;48.072;11.970;2023-06-14T13:17:15;5.70;;;2.10;;
67063;SDS011;58476;48.072;11.970;2023-06-14T13:19:40;7.43;;;2.30;;
67063;SDS011;58476;48.072;11.970;2023-06-14T13:22:06;11.82;;;2.83;;
67063;SDS011;58476;48.072;11.970;2023-06-14T13:24:31;8.75;;;2.30;;
67063;SDS011;58476;48.072;11.970;2023-06-14T13:26:57;7.85;;;2.53;;
67063;SDS011;58476;48.072;11.970;2023-06-14T13:29:25;7.97;;;2.17;;
67063;SDS011;58476;48.072;11.970;2023-06-14T13:31:50;6.53;;;2.08;;
67063;SDS011;58476;48.072;11.970;2023-06-14T13:34:16;6.43;;;2.15;;
67063;SDS011;58476;48.072;11.970;2023-06-14T13:36:41;7.88;;;2.38;;
67063;SDS011;58476;48.072;11.970;2023-06-14T13:39:06;4.18;;;2.05;;
67063;SDS011;58476;48.072;11.970;2023-06-14T13:41:32;4.13;;;2.10;;
67063;SDS011;58476;48.072;11.970;2023-06-14T13:43:58;6.28;;;2.22;;
67063;SDS011;58476;48.072;11.970;2023-06-14T13:46:23;8.25;;;2.20;;
67063;SDS011;58476;48.072;11.970;2023-06-14T13:48:48;7.03;;;2.13;;
67063;SDS011;58476;48.072;11.970;2023-06-14T13:51:14;6.75;;;2.20;;
67063;SDS011;58476;48.072;11.970;2023-06-14T13:53:39;7.28;;;2.00;;
67063;SDS011;58476;48.072;11.970;2023-06-14T13:56:04;7.18;;;2.17;;
67063;SDS011;58476;48.072;11.970;2023-06-14T13:58:30;5.15;;;2.05;;
67063;SDS011;58476;48.072;11.970;2023-06-14T14:00:55;8.63;;;2.45;;
67063;SDS011;58476;48.072;11.970;2023-06-14T14:03:20;3.15;;;2.00;;
67063;SDS011;58476;48.072;11.970;2023-06-14T14:05:46;7.40;;;2.17;;
67063;SDS011;58476;48.072;11.970;2023-06-14T14:08:11;5.70;;;2.20;;
67063;SDS011;58476;48.072;11.970;2023-06-14T14:10:36;4.60;;;2.00;;
67063;SDS011;58476;48.072;11.970;2023-06-14T14:13:02;9.23;;;2.67;;
67063;SDS011;58476;48.072;11.970;2023-06-14T14:15:27;3.38;;;2.00;;
67063;SDS011;58476;48.072;11.970;2023-06-14T14:17:52;5.53;;;1.98;;
67063;SDS011;58476;48.072;11.970;2023-06-14T14:20:18;5.45;;;2.35;;
67063;SDS011;58476;48.072;11.970;2023-06-14T14:22:43;13.27;;;3.08;;
67063;SDS011;58476;48.072;11.970;2023-06-14T14:25:08;5.43;;;2.20;;
67063;SDS011;58476;48.072;11.970;2023-06-14T14:27:34;5.10;;;2.25;;
67063;SDS011;58476;48.072;11.970;2023-06-14T14:30:00;5.68;;;2.00;;
67063;SDS011;58476;48.072;11.970;2023-06-14T14:32:25;5.43;;;2.25;;
67063;SDS011;58476;48.072;11.970;2023-06-14T14:34:50;3.97;;;1.90;;
67063;SDS011;58476;48.072;11.970;2023-06-14T14:37:16;3.72;;;1.90;;
67063;SDS011;58476;48.072;11.970;2023-06-14T14:39:41;8.27;;;2.13;;
67063;SDS011;58476;48.072;11.970;2023-06-14T14:42:06;13.98;;;2.08;;
67063;SDS011;58476;48.072;11.970;2023-06-14T14:44:32;8.10;;;2.58;;
67063;SDS011;58476;48.072;11.970;2023-06-14T14:46:57;4.20;;;2.00;;